createdAt,value
2024-01-15T00:08:15.793Z,-0.18
2024-01-15T00:11:08.387Z,-0.24
2024-01-15T00:13:51.764Z,-0.22
2024-01-15T00:20:16.541Z,-0.20
2024-01-15T00:23:18.654Z,-0.26
2024-01-15T00:26:30.483Z,-0.20
2024-01-15T00:33:41.248Z,-0.16
2024-01-15T00:35:48.444Z,-0.17
2024-01-15T00:42:56.440Z,-0.18
2024-01-15T00:45:37.795Z,-0.23
2024-01-15T00:48:25.668Z,-0.28
2024-01-15T00:51:01.059Z,-0.30
2024-01-15T00:53:44.657Z,-0.32
2024-01-15T00:56:14.280Z,-0.25
2024-01-15T01:02:08.401Z,-0.36
2024-01-15T01:05:11.903Z,-0.36
2024-01-15T01:08:24.527Z,-0.38
2024-01-15T01:10:54.397Z,-0.61
2024-01-15T01:13:43.196Z,-0.62
2024-01-15T01:16:17.395Z,-0.92
2024-01-15T01:18:53.038Z,-0.92
2024-01-15T01:21:32.063Z,-0.96
2024-01-15T01:24:04.643Z,-1.03
2024-01-15T01:26:37.917Z,-1.05
2024-01-15T01:29:38.238Z,-1.13
2024-01-15T01:32:39.631Z,-1.08
2024-01-15T01:35:44.723Z,-1.07
2024-01-15T01:38:41.511Z,-1.25
2024-01-15T01:41:38.464Z,-1.14
2024-01-15T01:44:13.612Z,-1.28
2024-01-15T01:46:54.962Z,-1.36
2024-01-15T01:49:55.417Z,-1.35
2024-01-15T01:52:50.608Z,-1.35
2024-01-15T01:56:20.190Z,-1.40
2024-01-15T02:00:23.845Z,-1.28
2024-01-15T02:02:36.239Z,-1.27
2024-01-15T02:05:52.722Z,-1.36
2024-01-15T02:08:41.868Z,-1.38
2024-01-15T02:11:27.267Z,-1.34
2024-01-15T02:14:10.852Z,-1.39
2024-01-15T02:27:08.625Z,-1.53
2024-01-15T02:30:04.809Z,-1.53
2024-01-15T02:33:08.166Z,-1.43
2024-01-15T02:35:42.420Z,-1.52
2024-01-15T02:38:21.377Z,-1.48
2024-01-15T02:41:38.776Z,-1.47
2024-01-15T02:44:48.762Z,-1.50
2024-01-15T02:47:35.211Z,-1.56
2024-01-15T02:53:09.489Z,-1.57
2024-01-15T02:56:11.902Z,-1.60
2024-01-15T02:59:16.499Z,-1.63
2024-01-15T03:02:04.238Z,-1.88
2024-01-15T03:07:03.926Z,-1.70
2024-01-15T03:11:10.121Z,-1.61
2024-01-15T03:13:57.265Z,-1.67
2024-01-15T03:16:49.932Z,-1.65
2024-01-15T03:20:59.229Z,-1.64
2024-01-15T03:26:34.032Z,-1.46
2024-01-15T03:29:13.152Z,-1.56
2024-01-15T03:35:21.146Z,-1.59
2024-01-15T03:38:35.227Z,-1.64
2024-01-15T03:48:56.919Z,-1.64
2024-01-15T03:52:37.969Z,-1.64
2024-01-15T03:55:52.982Z,-1.66
2024-01-15T03:59:21.955Z,-1.59
2024-01-15T04:02:39.529Z,-1.64
2024-01-15T04:05:46.613Z,-1.74
2024-01-15T04:08:48.026Z,-1.54
2024-01-15T04:11:59.378Z,-1.64
2024-01-15T04:15:05.908Z,-1.79
2024-01-15T04:17:52.604Z,-1.68
2024-01-15T04:20:34.025Z,-1.68
2024-01-15T04:23:23.306Z,-1.76
2024-01-15T04:26:07.349Z,-1.66
2024-01-15T04:28:46.762Z,-1.62
2024-01-15T04:32:08.885Z,-1.73
2024-01-15T04:34:44.663Z,-1.62
2024-01-15T04:37:22.433Z,-1.62
2024-01-15T04:40:03.368Z,-1.59
2024-01-15T04:42:41.909Z,-1.74
2024-01-15T04:45:37.624Z,-1.62
2024-01-15T04:48:59.371Z,-1.68
2024-01-15T04:51:41.905Z,-1.64
2024-01-15T04:54:27.726Z,-1.70
2024-01-15T04:57:26.029Z,-1.73
2024-01-15T05:02:58.873Z,-1.68
2024-01-15T05:05:47.026Z,-1.61
2024-01-15T05:08:49.145Z,-1.74
2024-01-15T05:12:33.250Z,-1.77
2024-01-15T05:17:41.455Z,-1.67
2024-01-15T05:20:37.968Z,-1.76
2024-01-15T05:27:24.229Z,-1.64
2024-01-15T05:30:09.662Z,-1.70
2024-01-15T05:33:15.138Z,-1.71
2024-01-15T05:35:58.305Z,-1.72
2024-01-15T05:42:46.802Z,-1.68
2024-01-15T05:45:47.464Z,-1.68
2024-01-15T05:53:15.242Z,-1.59
2024-01-15T05:56:11.192Z,-1.72
2024-01-15T05:59:06.194Z,-1.72
2024-01-15T06:04:39.742Z,-1.72
2024-01-15T06:07:51.934Z,-1.72
2024-01-15T06:13:42.092Z,-1.73
2024-01-15T06:16:28.297Z,-1.71
2024-01-15T06:19:21.009Z,-1.71
2024-01-15T06:21:55.481Z,-1.65
2024-01-15T06:24:22.948Z,-1.49
2024-01-15T06:26:50.310Z,-1.52
2024-01-15T06:29:17.606Z,-1.35
2024-01-15T06:31:57.536Z,-1.54
2024-01-15T06:34:29.341Z,-1.59
2024-01-15T06:37:22.812Z,-1.63
2024-01-15T06:40:29.459Z,-1.57
2024-01-15T06:43:10.736Z,-1.60
2024-01-15T06:46:10.675Z,-1.61
2024-01-15T06:48:56.896Z,-1.52
2024-01-15T06:51:37.617Z,-1.55
2024-01-15T06:54:34.622Z,-1.59
2024-01-15T06:57:14.531Z,-1.56
2024-01-15T07:00:27.059Z,-1.60
2024-01-15T07:02:57.756Z,-1.60
2024-01-15T07:05:52.226Z,-1.58
2024-01-15T07:08:49.065Z,-1.59
2024-01-15T07:11:35.344Z,-1.56
2024-01-15T07:14:33.462Z,-1.50
2024-01-15T07:17:51.406Z,-1.45
2024-01-15T07:20:19.267Z,-1.49
2024-01-15T07:22:56.858Z,-1.50
2024-01-15T07:25:40.257Z,-1.41
2024-01-15T07:28:18.905Z,-1.41
2024-01-15T07:31:09.299Z,-1.47
2024-01-15T07:33:51.588Z,-1.42
2024-01-15T07:36:41.394Z,-1.60
2024-01-15T07:39:27.018Z,-1.62
2024-01-15T07:42:13.537Z,-1.60
2024-01-15T07:44:52.532Z,-1.43
2024-01-15T07:47:36.664Z,-1.38
2024-01-15T07:50:28.240Z,-1.41
2024-01-15T07:52:58.174Z,-1.32
2024-01-15T07:55:37.404Z,-1.39
2024-01-15T07:58:14.795Z,-1.43
2024-01-15T08:04:01.602Z,-1.45
2024-01-15T08:13:18.513Z,-1.31
2024-01-15T08:16:14.935Z,-1.54
2024-01-15T08:19:05.958Z,-1.23
2024-01-15T08:21:55.924Z,-1.30
2024-01-15T08:24:31.132Z,-1.22
2024-01-15T08:27:05.866Z,-1.29
2024-01-15T08:29:44.500Z,-1.22
2024-01-15T08:32:35.774Z,-1.30
2024-01-15T08:35:18.331Z,-1.26
2024-01-15T08:37:46.266Z,-1.22
2024-01-15T08:40:15.982Z,-1.18
2024-01-15T08:45:17.261Z,-1.16
2024-01-15T08:46:03.606Z,-1.25
2024-01-15T08:48:40.831Z,-1.29
2024-01-15T08:51:24.343Z,-1.15
2024-01-15T08:53:59.095Z,-1.15
2024-01-15T08:56:33.791Z,-1.21
2024-01-15T08:59:16.587Z,-1.20
2024-01-15T09:01:51.464Z,-1.23
2024-01-15T09:08:10.354Z,-1.23
2024-01-15T09:10:52.937Z,-1.17
2024-01-15T09:13:39.838Z,-1.09
2024-01-15T09:16:14.198Z,-1.02
2024-01-15T09:19:15.674Z,-1.16
2024-01-15T09:21:37.704Z,-1.05
2024-01-15T09:24:08.618Z,-1.04
2024-01-15T09:26:56.520Z,-0.97
2024-01-15T09:29:25.600Z,-1.02
2024-01-15T09:32:06.660Z,-1.00
2024-01-15T09:34:52.360Z,-0.94
2024-01-15T09:37:44.688Z,-1.00
2024-01-15T09:40:24.727Z,-0.97
2024-01-15T09:43:13.152Z,-0.87
2024-01-15T09:45:46.895Z,-0.81
2024-01-15T09:48:21.279Z,-0.96
2024-01-15T09:51:11.239Z,-0.91
2024-01-15T09:53:45.202Z,-0.85
2024-01-15T09:56:26.209Z,-0.86
2024-01-15T09:59:09.957Z,-0.76
2024-01-15T10:01:59.914Z,-0.82
2024-01-15T10:04:35.875Z,-0.69
2024-01-15T10:07:16.567Z,-0.67
2024-01-15T10:10:09.302Z,-0.68
2024-01-15T10:48:30.298Z,-0.52
2024-01-15T10:51:29.198Z,-0.48
2024-01-15T10:54:29.840Z,-0.42
2024-01-15T10:57:21.236Z,-0.34
2024-01-15T11:00:10.875Z,-0.63
2024-01-15T11:03:01.862Z,-0.61
2024-01-15T11:05:55.831Z,-0.21
2024-01-15T11:08:44.199Z,-0.09
2024-01-15T11:11:31.973Z,-0.01
2024-01-15T11:35:21.797Z,-0.02
2024-01-15T11:40:53.207Z,0.18
2024-01-15T11:46:57.320Z,0.01
2024-01-15T11:50:02.071Z,-0.05
2024-01-15T11:53:38.740Z,0.21
2024-01-15T12:12:38.023Z,0.28
2024-01-15T12:15:31.221Z,0.02
2024-01-15T12:18:19.878Z,0.34
2024-01-15T12:20:53.374Z,0.21
2024-01-15T12:23:33.154Z,0.29
2024-01-15T12:26:13.884Z,0.29
2024-01-15T12:28:54.914Z,0.40
2024-01-15T12:43:15.284Z,1.09
2024-01-15T12:45:51.093Z,1.40
2024-01-15T12:48:27.906Z,1.05
2024-01-15T12:51:09.925Z,1.09
2024-01-15T12:54:27.531Z,0.75
2024-01-15T12:56:38.731Z,0.86
2024-01-15T12:59:25.841Z,1.19
2024-01-15T13:02:07.722Z,1.62
2024-01-15T13:05:04.477Z,1.67
2024-01-15T13:07:34.478Z,2.07
2024-01-15T13:10:12.071Z,1.96
2024-01-15T13:13:09.583Z,2.14
2024-01-15T13:16:10.244Z,1.75
2024-01-15T13:18:40.705Z,2.08
2024-01-15T13:21:14.654Z,1.87
2024-01-15T13:24:08.165Z,1.80
2024-01-15T13:26:42.693Z,1.24
2024-01-15T13:29:34.439Z,1.52
2024-01-15T13:32:07.644Z,1.37
2024-01-15T13:34:36.456Z,1.56
2024-01-15T13:37:20.622Z,1.28
2024-01-15T13:40:11.450Z,1.29
2024-01-15T13:42:56.796Z,1.37
2024-01-15T13:46:04.821Z,1.37
2024-01-15T13:49:19.068Z,1.29
2024-01-15T13:58:24.592Z,1.12
2024-01-15T14:00:55.151Z,0.89
2024-01-15T14:03:30.835Z,0.98
2024-01-15T14:06:19.062Z,1.19
2024-01-15T14:12:23.090Z,0.91
2024-01-15T14:20:50.188Z,0.88
2024-01-15T14:33:24.174Z,0.70
2024-01-15T14:36:21.120Z,0.63
2024-01-15T14:39:09.538Z,0.75
2024-01-15T14:42:04.708Z,0.69
2024-01-15T14:44:40.033Z,0.75
2024-01-15T14:47:19.369Z,0.54
2024-01-15T14:50:03.892Z,0.28
2024-01-15T14:59:18.999Z,0.34
2024-01-15T15:02:09.463Z,0.32
2024-01-15T15:04:54.485Z,0.35
2024-01-15T15:07:34.506Z,0.12
2024-01-15T15:10:15.943Z,0.34
2024-01-15T15:12:59.005Z,0.08
2024-01-15T15:15:36.836Z,0.13
2024-01-15T15:18:15.710Z,-0.09
2024-01-15T15:24:12.220Z,0.18
2024-01-15T15:27:30.727Z,0.25
2024-01-15T15:30:09.078Z,0.10
2024-01-15T15:32:58.967Z,0.20
2024-01-15T15:35:34.978Z,0.19
2024-01-15T15:38:22.494Z,0.21
2024-01-15T15:41:19.557Z,0.08
2024-01-15T15:43:59.411Z,-0.03
2024-01-15T15:49:23.143Z,0.05
2024-01-15T15:50:20.090Z,-0.04
2024-01-15T15:53:08.348Z,0.11
2024-01-15T15:55:40.673Z,0.20
2024-01-15T15:59:22.144Z,0.17
2024-01-15T16:01:45.684Z,-0.12
2024-01-15T16:04:23.389Z,-0.03
2024-01-15T16:07:15.300Z,0.01
2024-01-15T16:09:56.376Z,0.01
2024-01-15T16:12:24.888Z,-0.04
2024-01-15T16:15:06.849Z,-0.27
2024-01-15T16:23:18.529Z,-0.30
2024-01-15T16:23:36.565Z,-0.39
2024-01-15T16:24:17.670Z,-0.45
2024-01-15T16:27:25.668Z,-0.34
2024-01-15T16:30:12.352Z,-0.49
2024-01-15T16:33:04.183Z,-0.42
2024-01-15T16:38:41.953Z,-0.33
2024-01-15T16:41:16.973Z,-0.51
2024-01-15T16:43:52.987Z,-0.33
2024-01-15T16:46:35.379Z,-0.35
2024-01-15T16:49:11.685Z,-0.46
2024-01-15T16:55:23.158Z,-0.41
2024-01-15T16:58:03.898Z,-0.46
2024-01-15T17:00:36.324Z,-0.54
2024-01-15T17:03:12.122Z,-0.57
2024-01-15T17:05:55.780Z,-0.56
2024-01-15T17:08:37.873Z,-0.50
2024-01-15T17:12:06.839Z,-0.42
2024-01-15T17:15:15.389Z,-0.54
2024-01-15T17:18:19.262Z,-0.66
2024-01-15T17:21:05.279Z,-0.56
2024-01-15T17:23:50.858Z,-0.59
2024-01-15T17:26:45.601Z,-0.56
2024-01-15T17:29:28.296Z,-0.59
2024-01-15T17:32:09.107Z,-0.46
2024-01-15T17:34:44.808Z,-0.48
2024-01-15T17:37:27.516Z,-0.53
2024-01-15T17:42:30.582Z,-0.49
2024-01-15T17:43:15.384Z,-1.31
2024-01-15T17:45:54.500Z,-1.42
2024-01-15T17:48:33.322Z,-1.89
2024-01-15T17:51:23.377Z,-1.69
2024-01-15T17:53:57.587Z,-1.76
2024-01-15T17:56:37.631Z,-1.79
2024-01-15T17:59:18.580Z,-1.86
2024-01-15T18:05:06.457Z,-1.88
2024-01-15T18:07:47.645Z,-1.95
2024-01-15T18:10:28.497Z,-1.84
2024-01-15T18:13:42.611Z,-1.93
2024-01-15T18:16:23.354Z,-2.06
2024-01-15T18:19:10.671Z,-2.09
2024-01-15T18:22:36.467Z,-1.94
2024-01-15T18:25:07.658Z,-1.97
2024-01-15T18:28:24.831Z,-1.87
2024-01-15T18:31:08.727Z,-1.96
2024-01-15T18:40:44.271Z,-1.84
2024-01-15T18:44:01.174Z,-1.76
2024-01-15T18:52:46.106Z,-1.79
2024-01-15T18:55:31.888Z,-1.76
2024-01-15T19:22:13.397Z,-1.93
2024-01-15T19:25:52.154Z,-2.00
2024-01-15T19:33:43.936Z,-2.10
2024-01-15T19:39:20.729Z,-2.09
2024-01-15T20:02:10.577Z,-2.21
2024-01-15T20:04:40.925Z,-2.24
2024-01-15T20:07:15.495Z,-2.25
2024-01-15T20:13:07.904Z,-2.20
2024-01-15T20:18:52.372Z,-2.28
2024-01-15T20:22:03.276Z,-2.27
2024-01-15T20:29:25.023Z,-2.19
2024-01-15T20:31:36.048Z,-2.33
2024-01-15T20:34:49.100Z,-2.34
2024-01-15T20:37:39.439Z,-2.35
2024-01-15T20:40:50.284Z,-2.34
2024-01-15T20:44:04.690Z,-2.38
2024-01-15T20:47:21.503Z,-2.43
2024-01-15T20:50:04.097Z,-2.32
2024-01-15T20:53:15.194Z,-2.30
2024-01-15T20:55:40.085Z,-2.24
2024-01-15T20:58:15.444Z,-2.48
2024-01-15T21:00:46.124Z,-2.12
2024-01-15T21:03:30.564Z,-2.47
2024-01-15T21:06:49.299Z,-2.43
2024-01-15T21:10:05.098Z,-2.34
2024-01-15T21:13:23.680Z,-2.34
2024-01-15T21:19:42.553Z,-2.52
2024-01-15T21:22:24.767Z,-2.59
2024-01-15T21:25:01.091Z,-2.56
2024-01-15T21:27:42.535Z,-2.62
2024-01-15T21:30:12.201Z,-2.59
2024-01-15T21:32:50.945Z,-2.45
2024-01-15T21:35:18.954Z,-2.64
2024-01-15T21:37:49.645Z,-2.58
2024-01-15T21:41:19.408Z,-2.53
2024-01-15T21:44:08.364Z,-2.63
2024-01-15T21:47:35.450Z,-2.70
2024-01-15T21:55:46.623Z,-2.74
2024-01-15T21:58:39.983Z,-2.69
2024-01-15T22:01:50.049Z,-2.84
2024-01-15T22:04:42.933Z,-2.75
2024-01-15T22:10:10.723Z,-2.68
2024-01-15T22:12:44.962Z,-2.69
2024-01-15T22:15:42.549Z,-2.76
2024-01-15T22:18:20.847Z,-2.65
2024-01-15T22:21:01.043Z,-2.72
2024-01-15T22:23:58.057Z,-2.83
2024-01-15T22:26:53.257Z,-2.76
2024-01-15T22:29:56.150Z,-2.75
2024-01-15T22:32:37.656Z,-2.76
2024-01-15T22:35:15.742Z,-2.76
2024-01-15T22:38:09.124Z,-2.78
2024-01-15T22:43:41.389Z,-2.71
2024-01-15T22:46:29.832Z,-2.65
2024-01-15T22:49:10.304Z,-2.66
2024-01-15T22:52:38.438Z,-2.64
2024-01-15T22:56:12.375Z,-2.57
2024-01-15T23:03:17.056Z,-2.61
2024-01-15T23:06:13.671Z,-2.66
2024-01-15T23:09:06.779Z,-2.57
2024-01-15T23:16:11.057Z,-2.65
2024-01-15T23:18:32.229Z,-2.58
2024-01-15T23:21:38.846Z,-2.53
2024-01-15T23:25:10.844Z,-2.61
2024-01-15T23:28:27.550Z,-2.59
2024-01-15T23:31:23.440Z,-2.57
2024-01-15T23:34:06.209Z,-2.51
2024-01-15T23:36:40.472Z,-2.39
2024-01-15T23:39:13.758Z,-2.60
2024-01-15T23:42:34.746Z,-2.60
2024-01-15T23:45:09.886Z,-2.55
2024-01-15T23:47:43.992Z,-2.42
2024-01-15T23:50:42.395Z,-2.58
2024-01-15T23:53:15.729Z,-2.47
2024-01-15T23:56:06.427Z,-2.62
2024-01-15T23:58:43.461Z,-2.61
